sensor_id;sensor_type;location;lat;lon;timestamp;P1;durP1;ratioP1;P2;durP2;ratioP2
53899;SDS011;40509;32.858;-116.858;2023-04-19T00:02:20;25.63;;;11.02;;
53899;SDS011;40509;32.858;-116.858;2023-04-19T00:04:47;13.52;;;8.07;;
53899;SDS011;40509;32.858;-116.858;2023-04-19T00:07:14;20.13;;;8.77;;
53899;SDS011;40509;32.858;-116.858;2023-04-19T00:09:43;20.90;;;9.43;;
53899;SDS011;40509;32.858;-116.858;2023-04-19T00:12:10;13.55;;;7.95;;
53899;SDS011;40509;32.858;-116.858;2023-04-19T00:14:38;18.20;;;8.65;;
53899;SDS011;40509;32.858;-116.858;2023-04-19T00:17:05;20.88;;;8.65;;
53899;SDS011;40509;32.858;-116.858;2023-04-19T00:19:32;11.38;;;6.57;;
53899;SDS011;40509;32.858;-116.858;2023-04-19T00:21:59;13.60;;;8.43;;
53899;SDS011;40509;32.858;-116.858;2023-04-19T00:24:27;15.00;;;8.98;;
53899;SDS011;40509;32.858;-116.858;2023-04-19T00:26:54;23.17;;;9.40;;
53899;SDS011;40509;32.858;-116.858;2023-04-19T00:29:22;18.02;;;8.95;;
53899;SDS011;40509;32.858;-116.858;2023-04-19T00:31:49;18.25;;;8.07;;
53899;SDS011;40509;32.858;-116.858;2023-04-19T00:34:18;14.80;;;7.15;;
53899;SDS011;40509;32.858;-116.858;2023-04-19T00:36:45;11.65;;;7.28;;
53899;SDS011;40509;32.858;-116.858;2023-04-19T00:39:13;14.18;;;7.50;;
53899;SDS011;40509;32.858;-116.858;2023-04-19T00:41:40;22.98;;;7.47;;
53899;SDS011;40509;32.858;-116.858;2023-04-19T00:44:07;23.65;;;7.50;;
53899;SDS011;40509;32.858;-116.858;2023-04-19T00:46:36;13.57;;;7.45;;
53899;SDS011;40509;32.858;-116.858;2023-04-19T00:49:03;11.45;;;6.43;;
53899;SDS011;40509;32.858;-116.858;2023-04-19T00:51:32;12.95;;;6.82;;
53899;SDS011;40509;32.858;-116.858;2023-04-19T00:54:01;11.18;;;6.50;;
53899;SDS011;40509;32.858;-116.858;2023-04-19T00:56:29;17.02;;;6.55;;
53899;SDS011;40509;32.858;-116.858;2023-04-19T00:58:59;11.25;;;6.53;;
53899;SDS011;40509;32.858;-116.858;2023-04-19T01:01:26;11.35;;;7.40;;
53899;SDS011;40509;32.858;-116.858;2023-04-19T01:03:54;9.45;;;4.78;;
53899;SDS011;40509;32.858;-116.858;2023-04-19T01:06:21;20.80;;;6.18;;
53899;SDS011;40509;32.858;-116.858;2023-04-19T01:08:49;11.95;;;5.82;;
53899;SDS011;40509;32.858;-116.858;2023-04-19T01:11:16;29.30;;;5.30;;
53899;SDS011;40509;32.858;-116.858;2023-04-19T01:13:44;11.30;;;4.30;;
53899;SDS011;40509;32.858;-116.858;2023-04-19T01:16:11;6.13;;;3.85;;
53899;SDS011;40509;32.858;-116.858;2023-04-19T01:18:38;14.15;;;3.50;;
53899;SDS011;40509;32.858;-116.858;2023-04-19T01:21:07;10.35;;;3.65;;
53899;SDS011;40509;32.858;-116.858;2023-04-19T01:23:34;8.90;;;3.78;;
53899;SDS011;40509;32.858;-116.858;2023-04-19T01:26:04;6.22;;;2.67;;
53899;SDS011;40509;32.858;-116.858;2023-04-19T01:28:31;13.35;;;4.35;;
53899;SDS011;40509;32.858;-116.858;2023-04-19T01:30:59;7.53;;;3.22;;
53899;SDS011;40509;32.858;-116.858;2023-04-19T01:33:27;6.85;;;3.40;;
53899;SDS011;40509;32.858;-116.858;2023-04-19T01:35:54;5.15;;;2.85;;
53899;SDS011;40509;32.858;-116.858;2023-04-19T01:38:22;8.40;;;2.72;;
53899;SDS011;40509;32.858;-116.858;2023-04-19T01:40:49;6.65;;;2.83;;
53899;SDS011;40509;32.858;-116.858;2023-04-19T01:43:17;7.47;;;2.80;;
53899;SDS011;40509;32.858;-116.858;2023-04-19T01:45:44;8.45;;;2.83;;
53899;SDS011;40509;32.858;-116.858;2023-04-19T01:48:12;15.63;;;3.10;;
53899;SDS011;40509;32.858;-116.858;2023-04-19T01:50:39;6.05;;;3.08;;
53899;SDS011;40509;32.858;-116.858;2023-04-19T01:53:06;13.73;;;5.07;;
53899;SDS011;40509;32.858;-116.858;2023-04-19T01:55:34;13.27;;;3.80;;
53899;SDS011;40509;32.858;-116.858;2023-04-19T01:58:01;10.50;;;3.47;;
53899;SDS011;40509;32.858;-116.858;2023-04-19T02:00:29;10.30;;;4.22;;
53899;SDS011;40509;32.858;-116.858;2023-04-19T02:02:56;18.35;;;4.53;;
53899;SDS011;40509;32.858;-116.858;2023-04-19T02:05:24;13.40;;;4.30;;
53899;SDS011;40509;32.858;-116.858;2023-04-19T02:07:52;23.00;;;4.63;;
53899;SDS011;40509;32.858;-116.858;2023-04-19T02:10:20;23.63;;;3.90;;
53899;SDS011;40509;32.858;-116.858;2023-04-19T02:12:47;13.85;;;3.50;;
53899;SDS011;40509;32.858;-116.858;2023-04-19T02:15:14;10.93;;;3.50;;
53899;SDS011;40509;32.858;-116.858;2023-04-19T02:17:42;22.58;;;3.65;;
53899;SDS011;40509;32.858;-116.858;2023-04-19T02:20:12;8.30;;;3.17;;
53899;SDS011;40509;32.858;-116.858;2023-04-19T02:22:40;15.25;;;3.75;;
53899;SDS011;40509;32.858;-116.858;2023-04-19T02:25:10;18.27;;;3.42;;
53899;SDS011;40509;32.858;-116.858;2023-04-19T02:27:37;9.88;;;3.33;;
53899;SDS011;40509;32.858;-116.858;2023-04-19T02:30:05;12.70;;;4.85;;
53899;SDS011;40509;32.858;-116.858;2023-04-19T02:32:33;21.75;;;4.45;;
53899;SDS011;40509;32.858;-116.858;2023-04-19T02:35:00;13.38;;;4.00;;
53899;SDS011;40509;32.858;-116.858;2023-04-19T02:37:28;11.23;;;3.70;;
53899;SDS011;40509;32.858;-116.858;2023-04-19T02:39:56;10.13;;;2.70;;
53899;SDS011;40509;32.858;-116.858;2023-04-19T02:42:24;6.97;;;3.95;;
53899;SDS011;40509;32.858;-116.858;2023-04-19T02:44:53;10.80;;;4.20;;
53899;SDS011;40509;32.858;-116.858;2023-04-19T02:47:23;9.15;;;3.75;;
53899;SDS011;40509;32.858;-116.858;2023-04-19T02:49:51;12.45;;;3.33;;
53899;SDS011;40509;32.858;-116.858;2023-04-19T02:52:18;19.05;;;4.28;;
53899;SDS011;40509;32.858;-116.858;2023-04-19T02:54:46;20.73;;;4.40;;
53899;SDS011;40509;32.858;-116.858;2023-04-19T02:57:14;5.13;;;2.97;;
53899;SDS011;40509;32.858;-116.858;2023-04-19T02:59:42;8.70;;;3.33;;
53899;SDS011;40509;32.858;-116.858;2023-04-19T03:02:10;13.88;;;3.42;;
53899;SDS011;40509;32.858;-116.858;2023-04-19T03:04:37;5.35;;;2.83;;
53899;SDS011;40509;32.858;-116.858;2023-04-19T03:07:07;14.38;;;2.92;;
53899;SDS011;40509;32.858;-116.858;2023-04-19T03:09:36;4.80;;;3.97;;
53899;SDS011;40509;32.858;-116.858;2023-04-19T03:12:04;14.52;;;4.65;;
53899;SDS011;40509;32.858;-116.858;2023-04-19T03:14:32;19.50;;;3.40;;
53899;SDS011;40509;32.858;-116.858;2023-04-19T03:16:59;12.65;;;4.30;;
53899;SDS011;40509;32.858;-116.858;2023-04-19T03:19:27;9.07;;;3.38;;
53899;SDS011;40509;32.858;-116.858;2023-04-19T03:21:54;7.82;;;3.83;;
53899;SDS011;40509;32.858;-116.858;2023-04-19T03:24:26;7.13;;;3.15;;
53899;SDS011;40509;32.858;-116.858;2023-04-19T03:27:01;14.77;;;4.20;;
53899;SDS011;40509;32.858;-116.858;2023-04-19T03:29:31;12.52;;;3.70;;
53899;SDS011;40509;32.858;-116.858;2023-04-19T03:32:05;15.13;;;3.53;;
53899;SDS011;40509;32.858;-116.858;2023-04-19T03:34:33;8.23;;;3.13;;
53899;SDS011;40509;32.858;-116.858;2023-04-19T03:37:00;9.00;;;3.85;;
53899;SDS011;40509;32.858;-116.858;2023-04-19T03:39:29;16.85;;;4.05;;
53899;SDS011;40509;32.858;-116.858;2023-04-19T03:42:01;9.50;;;3.13;;
53899;SDS011;40509;32.858;-116.858;2023-04-19T03:44:41;7.18;;;3.35;;
53899;SDS011;40509;32.858;-116.858;2023-04-19T03:47:09;17.27;;;4.80;;
53899;SDS011;40509;32.858;-116.858;2023-04-19T03:49:42;12.13;;;5.53;;
53899;SDS011;40509;32.858;-116.858;2023-04-19T03:52:11;12.43;;;3.17;;
53899;SDS011;40509;32.858;-116.858;2023-04-19T03:54:38;8.23;;;4.30;;
53899;SDS011;40509;32.858;-116.858;2023-04-19T03:57:11;18.75;;;4.82;;
53899;SDS011;40509;32.858;-116.858;2023-04-19T03:59:40;6.22;;;3.30;;
53899;SDS011;40509;32.858;-116.858;2023-04-19T04:02:08;22.42;;;5.63;;
53899;SDS011;40509;32.858;-116.858;2023-04-19T04:04:36;7.20;;;3.28;;
53899;SDS011;40509;32.858;-116.858;2023-04-19T04:07:03;14.57;;;5.43;;
53899;SDS011;40509;32.858;-116.858;2023-04-19T04:09:30;11.38;;;4.43;;
53899;SDS011;40509;32.858;-116.858;2023-04-19T04:11:58;23.58;;;5.10;;
53899;SDS011;40509;32.858;-116.858;2023-04-19T04:14:26;17.75;;;5.07;;
53899;SDS011;40509;32.858;-116.858;2023-04-19T04:16:53;21.55;;;3.42;;
53899;SDS011;40509;32.858;-116.858;2023-04-19T04:19:21;10.10;;;5.43;;
53899;SDS011;40509;32.858;-116.858;2023-04-19T04:21:49;10.27;;;3.42;;
53899;SDS011;40509;32.858;-116.858;2023-04-19T04:24:17;9.82;;;3.65;;
53899;SDS011;40509;32.858;-116.858;2023-04-19T04:27:04;8.60;;;3.00;;
53899;SDS011;40509;32.858;-116.858;2023-04-19T04:29:35;7.90;;;4.22;;
53899;SDS011;40509;32.858;-116.858;2023-04-19T04:32:06;10.25;;;4.00;;
53899;SDS011;40509;32.858;-116.858;2023-04-19T04:34:39;8.43;;;4.30;;
53899;SDS011;40509;32.858;-116.858;2023-04-19T04:37:12;13.45;;;3.70;;
53899;SDS011;40509;32.858;-116.858;2023-04-19T04:39:40;8.80;;;3.55;;
53899;SDS011;40509;32.858;-116.858;2023-04-19T04:42:09;8.18;;;3.30;;
53899;SDS011;40509;32.858;-116.858;2023-04-19T04:44:37;9.60;;;3.35;;
53899;SDS011;40509;32.858;-116.858;2023-04-19T04:47:06;9.35;;;3.70;;
53899;SDS011;40509;32.858;-116.858;2023-04-19T04:49:39;8.40;;;3.55;;
53899;SDS011;40509;32.858;-116.858;2023-04-19T04:52:07;6.72;;;3.20;;
53899;SDS011;40509;32.858;-116.858;2023-04-19T04:54:42;9.48;;;3.10;;
53899;SDS011;40509;32.858;-116.858;2023-04-19T04:57:19;10.52;;;2.88;;
53899;SDS011;40509;32.858;-116.858;2023-04-19T04:59:46;3.90;;;3.10;;
53899;SDS011;40509;32.858;-116.858;2023-04-19T05:02:14;5.45;;;3.30;;
53899;SDS011;40509;32.858;-116.858;2023-04-19T05:04:42;9.38;;;3.08;;
53899;SDS011;40509;32.858;-116.858;2023-04-19T05:07:09;13.52;;;3.88;;
53899;SDS011;40509;32.858;-116.858;2023-04-19T05:09:37;8.63;;;2.83;;
53899;SDS011;40509;32.858;-116.858;2023-04-19T05:12:05;6.68;;;3.28;;
53899;SDS011;40509;32.858;-116.858;2023-04-19T05:14:32;8.48;;;2.88;;
53899;SDS011;40509;32.858;-116.858;2023-04-19T05:17:00;13.32;;;3.42;;
53899;SDS011;40509;32.858;-116.858;2023-04-19T05:19:27;9.02;;;3.10;;
53899;SDS011;40509;32.858;-116.858;2023-04-19T05:22:00;10.82;;;3.35;;
53899;SDS011;40509;32.858;-116.858;2023-04-19T05:24:28;11.85;;;3.58;;
53899;SDS011;40509;32.858;-116.858;2023-04-19T05:26:55;6.45;;;2.75;;
53899;SDS011;40509;32.858;-116.858;2023-04-19T05:29:24;12.10;;;2.55;;
53899;SDS011;40509;32.858;-116.858;2023-04-19T05:31:54;5.15;;;2.75;;
53899;SDS011;40509;32.858;-116.858;2023-04-19T05:34:25;9.77;;;3.88;;
53899;SDS011;40509;32.858;-116.858;2023-04-19T05:36:55;8.65;;;4.20;;
53899;SDS011;40509;32.858;-116.858;2023-04-19T05:39:22;8.32;;;2.63;;
53899;SDS011;40509;32.858;-116.858;2023-04-19T05:41:50;5.45;;;3.58;;
53899;SDS011;40509;32.858;-116.858;2023-04-19T05:44:18;8.32;;;3.17;;
53899;SDS011;40509;32.858;-116.858;2023-04-19T05:46:45;5.60;;;3.22;;
53899;SDS011;40509;32.858;-116.858;2023-04-19T05:52:07;7.88;;;3.28;;
53899;SDS011;40509;32.858;-116.858;2023-04-19T05:54:45;6.40;;;3.03;;
53899;SDS011;40509;32.858;-116.858;2023-04-19T05:57:12;10.40;;;3.25;;
53899;SDS011;40509;32.858;-116.858;2023-04-19T05:59:39;3.17;;;2.28;;
53899;SDS011;40509;32.858;-116.858;2023-04-19T06:02:08;6.13;;;2.20;;
53899;SDS011;40509;32.858;-116.858;2023-04-19T06:04:35;5.57;;;2.45;;
53899;SDS011;40509;32.858;-116.858;2023-04-19T06:07:03;6.53;;;2.17;;
53899;SDS011;40509;32.858;-116.858;2023-04-19T06:09:30;8.32;;;3.15;;
53899;SDS011;40509;32.858;-116.858;2023-04-19T06:11:57;11.25;;;2.95;;
53899;SDS011;40509;32.858;-116.858;2023-04-19T06:14:26;4.97;;;3.10;;
53899;SDS011;40509;32.858;-116.858;2023-04-19T06:16:54;6.55;;;2.80;;
53899;SDS011;40509;32.858;-116.858;2023-04-19T06:19:22;5.40;;;1.98;;
53899;SDS011;40509;32.858;-116.858;2023-04-19T06:21:49;3.97;;;2.70;;
53899;SDS011;40509;32.858;-116.858;2023-04-19T06:24:16;7.35;;;3.15;;
53899;SDS011;40509;32.858;-116.858;2023-04-19T06:26:43;8.02;;;2.75;;
53899;SDS011;40509;32.858;-116.858;2023-04-19T06:29:13;5.43;;;3.05;;
53899;SDS011;40509;32.858;-116.858;2023-04-19T06:31:40;8.07;;;2.75;;
53899;SDS011;40509;32.858;-116.858;2023-04-19T06:34:07;4.95;;;2.83;;
53899;SDS011;40509;32.858;-116.858;2023-04-19T06:36:36;4.63;;;2.55;;
53899;SDS011;40509;32.858;-116.858;2023-04-19T06:39:03;4.60;;;2.75;;
53899;SDS011;40509;32.858;-116.858;2023-04-19T06:41:30;4.53;;;3.47;;
53899;SDS011;40509;32.858;-116.858;2023-04-19T06:43:57;5.57;;;2.00;;
53899;SDS011;40509;32.858;-116.858;2023-04-19T06:46:26;6.18;;;2.20;;
53899;SDS011;40509;32.858;-116.858;2023-04-19T06:48:53;3.33;;;2.00;;
53899;SDS011;40509;32.858;-116.858;2023-04-19T06:51:21;8.25;;;2.05;;
53899;SDS011;40509;32.858;-116.858;2023-04-19T06:53:48;4.70;;;2.97;;
53899;SDS011;40509;32.858;-116.858;2023-04-19T06:56:16;2.10;;;1.65;;
53899;SDS011;40509;32.858;-116.858;2023-04-19T06:58:43;4.18;;;2.33;;
53899;SDS011;40509;32.858;-116.858;2023-04-19T07:01:10;3.53;;;3.03;;
53899;SDS011;40509;32.858;-116.858;2023-04-19T07:03:38;2.72;;;2.20;;
53899;SDS011;40509;32.858;-116.858;2023-04-19T07:06:05;5.93;;;2.67;;
53899;SDS011;40509;32.858;-116.858;2023-04-19T07:08:32;4.05;;;2.28;;
53899;SDS011;40509;32.858;-116.858;2023-04-19T07:11:00;5.72;;;2.08;;
53899;SDS011;40509;32.858;-116.858;2023-04-19T07:13:27;5.57;;;2.65;;
53899;SDS011;40509;32.858;-116.858;2023-04-19T07:15:54;6.80;;;2.85;;
53899;SDS011;40509;32.858;-116.858;2023-04-19T07:18:21;5.13;;;2.03;;
53899;SDS011;40509;32.858;-116.858;2023-04-19T07:20:49;3.38;;;2.00;;
53899;SDS011;40509;32.858;-116.858;2023-04-19T07:23:16;6.32;;;2.65;;
53899;SDS011;40509;32.858;-116.858;2023-04-19T07:25:44;3.25;;;2.47;;
53899;SDS011;40509;32.858;-116.858;2023-04-19T07:28:11;4.95;;;2.30;;
53899;SDS011;40509;32.858;-116.858;2023-04-19T07:30:39;5.97;;;2.55;;
53899;SDS011;40509;32.858;-116.858;2023-04-19T07:33:06;6.43;;;2.60;;
53899;SDS011;40509;32.858;-116.858;2023-04-19T07:35:33;3.63;;;2.08;;
53899;SDS011;40509;32.858;-116.858;2023-04-19T07:38:01;3.10;;;2.17;;
53899;SDS011;40509;32.858;-116.858;2023-04-19T07:40:28;3.42;;;2.53;;
53899;SDS011;40509;32.858;-116.858;2023-04-19T07:42:55;4.80;;;2.47;;
53899;SDS011;40509;32.858;-116.858;2023-04-19T07:45:23;2.67;;;1.65;;
53899;SDS011;40509;32.858;-116.858;2023-04-19T07:47:50;3.65;;;2.05;;
53899;SDS011;40509;32.858;-116.858;2023-04-19T07:50:17;3.58;;;2.35;;
53899;SDS011;40509;32.858;-116.858;2023-04-19T07:52:45;3.55;;;1.88;;
53899;SDS011;40509;32.858;-116.858;2023-04-19T07:55:12;5.22;;;2.45;;
53899;SDS011;40509;32.858;-116.858;2023-04-19T07:57:39;4.72;;;2.05;;
53899;SDS011;40509;32.858;-116.858;2023-04-19T08:00:11;3.53;;;2.25;;
53899;SDS011;40509;32.858;-116.858;2023-04-19T08:02:42;8.70;;;2.85;;
53899;SDS011;40509;32.858;-116.858;2023-04-19T08:05:10;4.55;;;2.00;;
53899;SDS011;40509;32.858;-116.858;2023-04-19T08:07:38;3.53;;;2.05;;
53899;SDS011;40509;32.858;-116.858;2023-04-19T08:10:06;3.13;;;1.85;;
53899;SDS011;40509;32.858;-116.858;2023-04-19T08:12:34;2.53;;;1.52;;
53899;SDS011;40509;32.858;-116.858;2023-04-19T08:15:02;2.83;;;2.03;;
53899;SDS011;40509;32.858;-116.858;2023-04-19T08:17:30;6.35;;;2.33;;
53899;SDS011;40509;32.858;-116.858;2023-04-19T08:19:57;6.00;;;2.03;;
53899;SDS011;40509;32.858;-116.858;2023-04-19T08:22:24;5.03;;;2.00;;
53899;SDS011;40509;32.858;-116.858;2023-04-19T08:24:52;3.70;;;2.00;;
53899;SDS011;40509;32.858;-116.858;2023-04-19T08:27:20;2.80;;;2.30;;
53899;SDS011;40509;32.858;-116.858;2023-04-19T08:29:47;4.43;;;2.13;;
53899;SDS011;40509;32.858;-116.858;2023-04-19T08:32:14;4.22;;;1.83;;
53899;SDS011;40509;32.858;-116.858;2023-04-19T08:34:41;4.85;;;2.03;;
53899;SDS011;40509;32.858;-116.858;2023-04-19T08:37:08;4.63;;;2.38;;
53899;SDS011;40509;32.858;-116.858;2023-04-19T08:39:36;5.50;;;2.38;;
53899;SDS011;40509;32.858;-116.858;2023-04-19T08:42:07;6.43;;;1.77;;
53899;SDS011;40509;32.858;-116.858;2023-04-19T08:44:36;2.20;;;1.58;;
53899;SDS011;40509;32.858;-116.858;2023-04-19T08:47:04;5.38;;;2.10;;
53899;SDS011;40509;32.858;-116.858;2023-04-19T08:49:33;4.47;;;2.00;;
53899;SDS011;40509;32.858;-116.858;2023-04-19T08:52:05;4.10;;;3.13;;
53899;SDS011;40509;32.858;-116.858;2023-04-19T08:54:34;2.92;;;2.08;;
53899;SDS011;40509;32.858;-116.858;2023-04-19T08:57:02;5.28;;;1.90;;
53899;SDS011;40509;32.858;-116.858;2023-04-19T08:59:29;3.25;;;1.75;;
53899;SDS011;40509;32.858;-116.858;2023-04-19T09:01:59;3.53;;;1.40;;
53899;SDS011;40509;32.858;-116.858;2023-04-19T09:04:27;5.72;;;2.60;;
53899;SDS011;40509;32.858;-116.858;2023-04-19T09:06:54;3.08;;;1.60;;
53899;SDS011;40509;32.858;-116.858;2023-04-19T09:09:23;7.82;;;2.15;;
53899;SDS011;40509;32.858;-116.858;2023-04-19T09:11:55;3.85;;;1.95;;
53899;SDS011;40509;32.858;-116.858;2023-04-19T09:14:26;4.57;;;2.00;;
53899;SDS011;40509;32.858;-116.858;2023-04-19T09:17:10;3.25;;;1.90;;
53899;SDS011;40509;32.858;-116.858;2023-04-19T09:19:46;2.22;;;1.55;;
53899;SDS011;40509;32.858;-116.858;2023-04-19T09:22:14;1.83;;;1.45;;
53899;SDS011;40509;32.858;-116.858;2023-04-19T09:24:42;2.13;;;1.77;;
53899;SDS011;40509;32.858;-116.858;2023-04-19T09:27:09;1.95;;;1.40;;
53899;SDS011;40509;32.858;-116.858;2023-04-19T09:29:39;2.90;;;1.75;;
53899;SDS011;40509;32.858;-116.858;2023-04-19T09:32:06;4.03;;;2.22;;
53899;SDS011;40509;32.858;-116.858;2023-04-19T09:34:34;3.08;;;1.65;;
53899;SDS011;40509;32.858;-116.858;2023-04-19T09:37:11;2.20;;;1.70;;
53899;SDS011;40509;32.858;-116.858;2023-04-19T09:39:38;4.15;;;1.70;;
53899;SDS011;40509;32.858;-116.858;2023-04-19T09:42:06;3.88;;;1.92;;
53899;SDS011;40509;32.858;-116.858;2023-04-19T09:44:33;2.40;;;1.30;;
53899;SDS011;40509;32.858;-116.858;2023-04-19T09:47:00;3.40;;;1.48;;
53899;SDS011;40509;32.858;-116.858;2023-04-19T09:49:28;2.17;;;1.70;;
53899;SDS011;40509;32.858;-116.858;2023-04-19T09:51:55;2.17;;;1.55;;
53899;SDS011;40509;32.858;-116.858;2023-04-19T09:54:24;4.22;;;1.80;;
53899;SDS011;40509;32.858;-116.858;2023-04-19T09:56:57;7.15;;;2.33;;
53899;SDS011;40509;32.858;-116.858;2023-04-19T09:59:26;2.08;;;1.75;;
53899;SDS011;40509;32.858;-116.858;2023-04-19T10:01:54;2.65;;;2.28;;
53899;SDS011;40509;32.858;-116.858;2023-04-19T10:04:21;3.38;;;2.00;;
53899;SDS011;40509;32.858;-116.858;2023-04-19T10:06:49;5.05;;;2.20;;
53899;SDS011;40509;32.858;-116.858;2023-04-19T10:09:19;2.83;;;1.92;;
53899;SDS011;40509;32.858;-116.858;2023-04-19T10:11:48;3.90;;;1.52;;
53899;SDS011;40509;32.858;-116.858;2023-04-19T10:14:23;5.10;;;2.47;;
53899;SDS011;40509;32.858;-116.858;2023-04-19T10:16:53;3.10;;;1.80;;
53899;SDS011;40509;32.858;-116.858;2023-04-19T10:19:22;3.33;;;1.55;;
53899;SDS011;40509;32.858;-116.858;2023-04-19T10:21:50;3.17;;;2.15;;
53899;SDS011;40509;32.858;-116.858;2023-04-19T10:24:18;1.45;;;1.30;;
53899;SDS011;40509;32.858;-116.858;2023-04-19T10:29:56;4.30;;;2.33;;
53899;SDS011;40509;32.858;-116.858;2023-04-19T10:32:29;2.55;;;1.77;;
53899;SDS011;40509;32.858;-116.858;2023-04-19T10:35:16;3.22;;;1.98;;
53899;SDS011;40509;32.858;-116.858;2023-04-19T10:43:28;2.67;;;1.97;;
53899;SDS011;40509;32.858;-116.858;2023-04-19T10:48:37;1.63;;;1.15;;
53899;SDS011;40509;32.858;-116.858;2023-04-19T10:51:11;2.47;;;1.60;;
53899;SDS011;40509;32.858;-116.858;2023-04-19T10:53:51;5.13;;;2.15;;
53899;SDS011;40509;32.858;-116.858;2023-04-19T11:05:10;2.75;;;1.33;;
53899;SDS011;40509;32.858;-116.858;2023-04-19T11:07:15;1.60;;;1.17;;
53899;SDS011;40509;32.858;-116.858;2023-04-19T11:09:47;2.92;;;1.38;;
53899;SDS011;40509;32.858;-116.858;2023-04-19T11:12:19;5.13;;;1.85;;
53899;SDS011;40509;32.858;-116.858;2023-04-19T11:14:49;2.83;;;1.75;;
53899;SDS011;40509;32.858;-116.858;2023-04-19T11:17:20;1.60;;;1.10;;
53899;SDS011;40509;32.858;-116.858;2023-04-19T11:20:05;3.30;;;1.98;;
53899;SDS011;40509;32.858;-116.858;2023-04-19T11:22:38;1.55;;;1.30;;
53899;SDS011;40509;32.858;-116.858;2023-04-19T11:25:07;4.20;;;2.05;;
53899;SDS011;40509;32.858;-116.858;2023-04-19T11:27:38;3.05;;;1.55;;
53899;SDS011;40509;32.858;-116.858;2023-04-19T11:30:10;2.75;;;1.75;;
53899;SDS011;40509;32.858;-116.858;2023-04-19T11:32:52;3.08;;;1.33;;
53899;SDS011;40509;32.858;-116.858;2023-04-19T11:35:22;3.42;;;1.83;;
53899;SDS011;40509;32.858;-116.858;2023-04-19T11:37:51;1.70;;;1.33;;
53899;SDS011;40509;32.858;-116.858;2023-04-19T11:40:20;2.25;;;1.50;;
53899;SDS011;40509;32.858;-116.858;2023-04-19T11:42:55;3.72;;;1.30;;
53899;SDS011;40509;32.858;-116.858;2023-04-19T11:47:55;1.70;;;1.42;;
53899;SDS011;40509;32.858;-116.858;2023-04-19T11:52:59;2.45;;;1.60;;
53899;SDS011;40509;32.858;-116.858;2023-04-19T11:55:35;2.65;;;1.50;;
53899;SDS011;40509;32.858;-116.858;2023-04-19T11:58:02;3.88;;;1.98;;
53899;SDS011;40509;32.858;-116.858;2023-04-19T12:00:34;2.13;;;1.92;;
53899;SDS011;40509;32.858;-116.858;2023-04-19T12:03:02;4.25;;;1.65;;
53899;SDS011;40509;32.858;-116.858;2023-04-19T12:05:29;1.45;;;1.17;;
53899;SDS011;40509;32.858;-116.858;2023-04-19T12:08:05;1.58;;;1.27;;
53899;SDS011;40509;32.858;-116.858;2023-04-19T12:10:36;3.22;;;1.88;;
53899;SDS011;40509;32.858;-116.858;2023-04-19T12:13:16;2.45;;;1.48;;
53899;SDS011;40509;32.858;-116.858;2023-04-19T12:15:44;3.80;;;2.28;;
53899;SDS011;40509;32.858;-116.858;2023-04-19T12:18:14;1.90;;;1.45;;
53899;SDS011;40509;32.858;-116.858;2023-04-19T12:20:45;4.13;;;2.28;;
53899;SDS011;40509;32.858;-116.858;2023-04-19T12:23:14;3.67;;;1.85;;
53899;SDS011;40509;32.858;-116.858;2023-04-19T12:25:43;3.28;;;1.52;;
53899;SDS011;40509;32.858;-116.858;2023-04-19T12:28:11;1.75;;;1.33;;
53899;SDS011;40509;32.858;-116.858;2023-04-19T12:30:39;2.40;;;1.27;;
53899;SDS011;40509;32.858;-116.858;2023-04-19T12:33:08;2.92;;;1.50;;
53899;SDS011;40509;32.858;-116.858;2023-04-19T12:35:36;4.95;;;1.48;;
53899;SDS011;40509;32.858;-116.858;2023-04-19T12:38:04;2.55;;;1.55;;
53899;SDS011;40509;32.858;-116.858;2023-04-19T12:40:31;2.42;;;1.42;;
53899;SDS011;40509;32.858;-116.858;2023-04-19T12:42:59;2.28;;;1.52;;
53899;SDS011;40509;32.858;-116.858;2023-04-19T12:45:27;2.03;;;1.52;;
53899;SDS011;40509;32.858;-116.858;2023-04-19T12:47:54;1.38;;;1.00;;
53899;SDS011;40509;32.858;-116.858;2023-04-19T12:50:22;4.22;;;1.52;;
53899;SDS011;40509;32.858;-116.858;2023-04-19T12:52:49;2.42;;;1.48;;
53899;SDS011;40509;32.858;-116.858;2023-04-19T12:55:18;1.27;;;1.13;;
53899;SDS011;40509;32.858;-116.858;2023-04-19T12:57:46;1.55;;;1.27;;
53899;SDS011;40509;32.858;-116.858;2023-04-19T13:00:13;1.73;;;1.35;;
53899;SDS011;40509;32.858;-116.858;2023-04-19T13:02:40;2.05;;;1.08;;
53899;SDS011;40509;32.858;-116.858;2023-04-19T13:05:07;4.72;;;2.20;;
53899;SDS011;40509;32.858;-116.858;2023-04-19T13:07:35;2.67;;;1.83;;
53899;SDS011;40509;32.858;-116.858;2023-04-19T13:10:02;3.40;;;1.10;;
53899;SDS011;40509;32.858;-116.858;2023-04-19T13:12:29;2.33;;;1.40;;
53899;SDS011;40509;32.858;-116.858;2023-04-19T13:14:57;1.50;;;1.13;;
53899;SDS011;40509;32.858;-116.858;2023-04-19T13:17:24;1.92;;;1.52;;
53899;SDS011;40509;32.858;-116.858;2023-04-19T13:19:51;2.33;;;1.30;;
53899;SDS011;40509;32.858;-116.858;2023-04-19T13:22:18;2.50;;;1.85;;
53899;SDS011;40509;32.858;-116.858;2023-04-19T13:24:46;1.95;;;1.50;;
53899;SDS011;40509;32.858;-116.858;2023-04-19T13:27:13;2.40;;;1.67;;
53899;SDS011;40509;32.858;-116.858;2023-04-19T13:29:40;2.45;;;1.35;;
53899;SDS011;40509;32.858;-116.858;2023-04-19T13:32:07;2.35;;;1.60;;
53899;SDS011;40509;32.858;-116.858;2023-04-19T13:34:38;2.83;;;1.60;;
53899;SDS011;40509;32.858;-116.858;2023-04-19T13:37:06;3.53;;;1.33;;
53899;SDS011;40509;32.858;-116.858;2023-04-19T13:39:33;1.88;;;1.45;;
53899;SDS011;40509;32.858;-116.858;2023-04-19T13:42:02;2.35;;;1.23;;
53899;SDS011;40509;32.858;-116.858;2023-04-19T13:44:29;1.67;;;1.27;;
53899;SDS011;40509;32.858;-116.858;2023-04-19T13:46:57;3.05;;;1.33;;
53899;SDS011;40509;32.858;-116.858;2023-04-19T13:49:26;1.52;;;1.27;;
53899;SDS011;40509;32.858;-116.858;2023-04-19T13:51:54;2.78;;;1.35;;
53899;SDS011;40509;32.858;-116.858;2023-04-19T13:54:21;2.85;;;2.03;;
53899;SDS011;40509;32.858;-116.858;2023-04-19T13:56:49;4.50;;;1.13;;
53899;SDS011;40509;32.858;-116.858;2023-04-19T13:59:16;3.50;;;1.95;;
53899;SDS011;40509;32.858;-116.858;2023-04-19T14:01:44;1.88;;;1.25;;
53899;SDS011;40509;32.858;-116.858;2023-04-19T14:04:11;5.10;;;1.70;;
53899;SDS011;40509;32.858;-116.858;2023-04-19T14:06:39;2.97;;;1.27;;
53899;SDS011;40509;32.858;-116.858;2023-04-19T14:09:06;2.08;;;1.00;;
53899;SDS011;40509;32.858;-116.858;2023-04-19T14:11:33;2.70;;;1.55;;
53899;SDS011;40509;32.858;-116.858;2023-04-19T14:14:01;1.95;;;1.30;;
53899;SDS011;40509;32.858;-116.858;2023-04-19T14:16:28;1.40;;;1.20;;
53899;SDS011;40509;32.858;-116.858;2023-04-19T14:18:56;3.53;;;1.23;;
53899;SDS011;40509;32.858;-116.858;2023-04-19T14:21:23;2.70;;;1.35;;
53899;SDS011;40509;32.858;-116.858;2023-04-19T14:23:51;1.63;;;1.35;;
53899;SDS011;40509;32.858;-116.858;2023-04-19T14:26:18;1.20;;;0.80;;
53899;SDS011;40509;32.858;-116.858;2023-04-19T14:28:45;6.70;;;1.70;;
53899;SDS011;40509;32.858;-116.858;2023-04-19T14:31:12;3.15;;;1.27;;
53899;SDS011;40509;32.858;-116.858;2023-04-19T14:33:39;1.90;;;1.13;;
53899;SDS011;40509;32.858;-116.858;2023-04-19T14:36:06;4.00;;;1.20;;
53899;SDS011;40509;32.858;-116.858;2023-04-19T14:38:34;2.90;;;1.67;;
53899;SDS011;40509;32.858;-116.858;2023-04-19T14:41:01;1.40;;;1.10;;
53899;SDS011;40509;32.858;-116.858;2023-04-19T14:43:29;2.40;;;1.45;;